sensor_id;sensor_type;location;lat;lon;timestamp;P1;durP1;ratioP1;P2;durP2;ratioP2
12445;SDS011;6287;50.984;7.022;2024-03-02T00:00:10;1.47;;;1.10;;
12445;SDS011;6287;50.984;7.022;2024-03-02T00:02:39;1.30;;;1.20;;
12445;SDS011;6287;50.984;7.022;2024-03-02T00:05:06;1.53;;;1.43;;
12445;SDS011;6287;50.984;7.022;2024-03-02T00:07:32;2.00;;;1.50;;
12445;SDS011;6287;50.984;7.022;2024-03-02T00:09:58;1.30;;;1.30;;
12445;SDS011;6287;50.984;7.022;2024-03-02T00:12:27;1.53;;;1.27;;
12445;SDS011;6287;50.984;7.022;2024-03-02T00:14:54;1.20;;;1.03;;
12445;SDS011;6287;50.984;7.022;2024-03-02T00:17:21;1.50;;;1.40;;
12445;SDS011;6287;50.984;7.022;2024-03-02T00:19:50;3.37;;;1.30;;
12445;SDS011;6287;50.984;7.022;2024-03-02T00:22:18;1.03;;;1.03;;
12445;SDS011;6287;50.984;7.022;2024-03-02T00:24:49;1.50;;;1.40;;
12445;SDS011;6287;50.984;7.022;2024-03-02T00:27:15;1.27;;;1.27;;
12445;SDS011;6287;50.984;7.022;2024-03-02T00:29:45;1.47;;;1.30;;
12445;SDS011;6287;50.984;7.022;2024-03-02T00:32:13;2.20;;;1.10;;
12445;SDS011;6287;50.984;7.022;2024-03-02T00:34:41;1.27;;;1.27;;
12445;SDS011;6287;50.984;7.022;2024-03-02T00:37:07;2.00;;;1.03;;
12445;SDS011;6287;50.984;7.022;2024-03-02T00:39:35;1.20;;;1.20;;
12445;SDS011;6287;50.984;7.022;2024-03-02T00:42:03;1.30;;;1.20;;
12445;SDS011;6287;50.984;7.022;2024-03-02T00:44:30;1.57;;;1.40;;
12445;SDS011;6287;50.984;7.022;2024-03-02T00:47:00;2.80;;;1.10;;
12445;SDS011;6287;50.984;7.022;2024-03-02T00:49:29;1.20;;;1.10;;
12445;SDS011;6287;50.984;7.022;2024-03-02T00:51:57;1.30;;;1.20;;
12445;SDS011;6287;50.984;7.022;2024-03-02T00:54:26;1.33;;;1.20;;
12445;SDS011;6287;50.984;7.022;2024-03-02T00:56:54;2.70;;;1.10;;
12445;SDS011;6287;50.984;7.022;2024-03-02T00:59:26;1.00;;;1.00;;
12445;SDS011;6287;50.984;7.022;2024-03-02T01:01:56;1.17;;;1.07;;
12445;SDS011;6287;50.984;7.022;2024-03-02T01:04:24;1.03;;;0.97;;
12445;SDS011;6287;50.984;7.022;2024-03-02T01:06:52;1.63;;;1.00;;
12445;SDS011;6287;50.984;7.022;2024-03-02T01:09:20;1.07;;;1.07;;
12445;SDS011;6287;50.984;7.022;2024-03-02T01:11:50;1.37;;;1.10;;
12445;SDS011;6287;50.984;7.022;2024-03-02T01:14:16;0.97;;;0.97;;
12445;SDS011;6287;50.984;7.022;2024-03-02T01:16:42;1.27;;;1.07;;
12445;SDS011;6287;50.984;7.022;2024-03-02T01:19:07;2.30;;;1.10;;
12445;SDS011;6287;50.984;7.022;2024-03-02T01:21:37;1.50;;;0.90;;
12445;SDS011;6287;50.984;7.022;2024-03-02T01:24:02;1.00;;;0.90;;
12445;SDS011;6287;50.984;7.022;2024-03-02T01:26:33;1.10;;;1.00;;
12445;SDS011;6287;50.984;7.022;2024-03-02T01:28:59;0.80;;;0.80;;
12445;SDS011;6287;50.984;7.022;2024-03-02T01:31:24;1.27;;;0.90;;
12445;SDS011;6287;50.984;7.022;2024-03-02T01:33:50;1.50;;;1.03;;
12445;SDS011;6287;50.984;7.022;2024-03-02T01:36:17;1.27;;;1.17;;
12445;SDS011;6287;50.984;7.022;2024-03-02T01:38:43;1.50;;;1.03;;
12445;SDS011;6287;50.984;7.022;2024-03-02T01:41:09;1.00;;;1.00;;
12445;SDS011;6287;50.984;7.022;2024-03-02T01:43:38;1.03;;;0.93;;
12445;SDS011;6287;50.984;7.022;2024-03-02T01:46:09;0.90;;;0.90;;
12445;SDS011;6287;50.984;7.022;2024-03-02T01:48:37;1.67;;;1.10;;
12445;SDS011;6287;50.984;7.022;2024-03-02T01:51:05;0.80;;;0.80;;
12445;SDS011;6287;50.984;7.022;2024-03-02T01:53:34;0.90;;;0.90;;
12445;SDS011;6287;50.984;7.022;2024-03-02T01:56:02;1.03;;;1.03;;
12445;SDS011;6287;50.984;7.022;2024-03-02T01:58:28;1.30;;;1.20;;
12445;SDS011;6287;50.984;7.022;2024-03-02T02:00:56;1.00;;;1.00;;
12445;SDS011;6287;50.984;7.022;2024-03-02T02:03:21;1.00;;;1.00;;
12445;SDS011;6287;50.984;7.022;2024-03-02T02:05:50;1.83;;;1.20;;
12445;SDS011;6287;50.984;7.022;2024-03-02T02:08:15;0.70;;;0.70;;
12445;SDS011;6287;50.984;7.022;2024-03-02T02:10:45;1.10;;;1.10;;
12445;SDS011;6287;50.984;7.022;2024-03-02T02:13:11;1.93;;;0.90;;
12445;SDS011;6287;50.984;7.022;2024-03-02T02:15:42;1.30;;;1.20;;
12445;SDS011;6287;50.984;7.022;2024-03-02T02:18:07;1.30;;;1.20;;
12445;SDS011;6287;50.984;7.022;2024-03-02T02:20:35;1.33;;;0.90;;
12445;SDS011;6287;50.984;7.022;2024-03-02T02:23:01;1.20;;;1.00;;
12445;SDS011;6287;50.984;7.022;2024-03-02T02:25:34;1.53;;;1.10;;
12445;SDS011;6287;50.984;7.022;2024-03-02T02:28:03;1.90;;;1.20;;
12445;SDS011;6287;50.984;7.022;2024-03-02T02:30:31;1.10;;;1.00;;
12445;SDS011;6287;50.984;7.022;2024-03-02T02:32:58;1.77;;;1.10;;
12445;SDS011;6287;50.984;7.022;2024-03-02T02:35:28;1.40;;;1.03;;
12445;SDS011;6287;50.984;7.022;2024-03-02T02:37:54;1.00;;;1.00;;
12445;SDS011;6287;50.984;7.022;2024-03-02T02:40:21;1.10;;;1.10;;
12445;SDS011;6287;50.984;7.022;2024-03-02T02:42:47;1.03;;;0.83;;
12445;SDS011;6287;50.984;7.022;2024-03-02T02:45:13;1.10;;;1.10;;
12445;SDS011;6287;50.984;7.022;2024-03-02T02:47:41;1.90;;;1.30;;
12445;SDS011;6287;50.984;7.022;2024-03-02T02:50:08;2.27;;;1.03;;
12445;SDS011;6287;50.984;7.022;2024-03-02T02:52:34;1.60;;;0.90;;
12445;SDS011;6287;50.984;7.022;2024-03-02T02:55:06;1.10;;;0.90;;
12445;SDS011;6287;50.984;7.022;2024-03-02T02:57:38;0.90;;;0.90;;
12445;SDS011;6287;50.984;7.022;2024-03-02T03:00:11;1.03;;;1.03;;
12445;SDS011;6287;50.984;7.022;2024-03-02T03:02:44;0.90;;;0.80;;
12445;SDS011;6287;50.984;7.022;2024-03-02T03:05:12;1.20;;;1.10;;
12445;SDS011;6287;50.984;7.022;2024-03-02T03:07:41;0.90;;;0.90;;
12445;SDS011;6287;50.984;7.022;2024-03-02T03:10:09;0.90;;;0.90;;
12445;SDS011;6287;50.984;7.022;2024-03-02T03:12:35;1.33;;;1.20;;
12445;SDS011;6287;50.984;7.022;2024-03-02T03:15:03;2.83;;;1.10;;
12445;SDS011;6287;50.984;7.022;2024-03-02T03:17:29;0.93;;;0.90;;
12445;SDS011;6287;50.984;7.022;2024-03-02T03:19:55;1.30;;;1.20;;
12445;SDS011;6287;50.984;7.022;2024-03-02T03:22:23;0.90;;;0.90;;
12445;SDS011;6287;50.984;7.022;2024-03-02T03:24:51;0.87;;;0.83;;
12445;SDS011;6287;50.984;7.022;2024-03-02T03:27:19;0.87;;;0.83;;
12445;SDS011;6287;50.984;7.022;2024-03-02T03:29:49;1.07;;;1.07;;
12445;SDS011;6287;50.984;7.022;2024-03-02T03:32:17;2.60;;;1.27;;
12445;SDS011;6287;50.984;7.022;2024-03-02T03:34:45;1.30;;;1.20;;
12445;SDS011;6287;50.984;7.022;2024-03-02T03:37:12;0.90;;;0.90;;
12445;SDS011;6287;50.984;7.022;2024-03-02T03:39:40;1.53;;;1.30;;
12445;SDS011;6287;50.984;7.022;2024-03-02T03:42:06;1.23;;;1.13;;
12445;SDS011;6287;50.984;7.022;2024-03-02T03:44:32;1.00;;;0.97;;
12445;SDS011;6287;50.984;7.022;2024-03-02T03:47:00;2.10;;;1.20;;
12445;SDS011;6287;50.984;7.022;2024-03-02T03:49:27;1.10;;;1.10;;
12445;SDS011;6287;50.984;7.022;2024-03-02T03:51:54;1.17;;;1.10;;
12445;SDS011;6287;50.984;7.022;2024-03-02T03:54:20;1.97;;;1.00;;
12445;SDS011;6287;50.984;7.022;2024-03-02T03:56:50;2.50;;;1.10;;
12445;SDS011;6287;50.984;7.022;2024-03-02T03:59:16;1.37;;;1.20;;
12445;SDS011;6287;50.984;7.022;2024-03-02T04:01:42;1.20;;;1.10;;
12445;SDS011;6287;50.984;7.022;2024-03-02T04:04:10;1.17;;;1.13;;
12445;SDS011;6287;50.984;7.022;2024-03-02T04:06:35;1.60;;;1.10;;
12445;SDS011;6287;50.984;7.022;2024-03-02T04:09:03;1.70;;;1.20;;
12445;SDS011;6287;50.984;7.022;2024-03-02T04:11:31;1.00;;;0.90;;
12445;SDS011;6287;50.984;7.022;2024-03-02T04:13:57;0.80;;;0.80;;
12445;SDS011;6287;50.984;7.022;2024-03-02T04:16:25;1.30;;;1.00;;
12445;SDS011;6287;50.984;7.022;2024-03-02T04:18:50;2.13;;;1.07;;
12445;SDS011;6287;50.984;7.022;2024-03-02T04:21:16;1.47;;;0.90;;
12445;SDS011;6287;50.984;7.022;2024-03-02T04:23:44;1.10;;;1.00;;
12445;SDS011;6287;50.984;7.022;2024-03-02T04:26:09;1.47;;;1.10;;
12445;SDS011;6287;50.984;7.022;2024-03-02T04:28:37;1.10;;;1.00;;
12445;SDS011;6287;50.984;7.022;2024-03-02T04:31:03;0.93;;;0.93;;
12445;SDS011;6287;50.984;7.022;2024-03-02T04:33:33;0.90;;;0.90;;
12445;SDS011;6287;50.984;7.022;2024-03-02T04:36:03;1.90;;;1.17;;
12445;SDS011;6287;50.984;7.022;2024-03-02T04:38:29;1.43;;;1.00;;
12445;SDS011;6287;50.984;7.022;2024-03-02T04:40:57;1.87;;;1.07;;
12445;SDS011;6287;50.984;7.022;2024-03-02T04:43:22;1.53;;;1.10;;
12445;SDS011;6287;50.984;7.022;2024-03-02T04:45:48;1.30;;;0.83;;
12445;SDS011;6287;50.984;7.022;2024-03-02T04:48:13;1.10;;;1.00;;
12445;SDS011;6287;50.984;7.022;2024-03-02T04:50:41;0.93;;;0.93;;
12445;SDS011;6287;50.984;7.022;2024-03-02T04:53:09;1.40;;;1.30;;
12445;SDS011;6287;50.984;7.022;2024-03-02T04:55:35;1.40;;;1.30;;
12445;SDS011;6287;50.984;7.022;2024-03-02T04:58:06;1.17;;;1.17;;
12445;SDS011;6287;50.984;7.022;2024-03-02T05:00:35;1.20;;;1.03;;
12445;SDS011;6287;50.984;7.022;2024-03-02T05:03:03;1.87;;;1.00;;
12445;SDS011;6287;50.984;7.022;2024-03-02T05:05:31;1.70;;;1.20;;
12445;SDS011;6287;50.984;7.022;2024-03-02T05:07:57;1.20;;;1.00;;
12445;SDS011;6287;50.984;7.022;2024-03-02T05:10:22;1.10;;;1.10;;
12445;SDS011;6287;50.984;7.022;2024-03-02T05:12:50;1.37;;;1.17;;
12445;SDS011;6287;50.984;7.022;2024-03-02T05:15:24;1.80;;;1.30;;
12445;SDS011;6287;50.984;7.022;2024-03-02T05:17:51;1.87;;;1.10;;
12445;SDS011;6287;50.984;7.022;2024-03-02T05:20:18;1.00;;;1.00;;
12445;SDS011;6287;50.984;7.022;2024-03-02T05:22:43;1.30;;;1.20;;
12445;SDS011;6287;50.984;7.022;2024-03-02T05:25:09;1.73;;;1.30;;
12445;SDS011;6287;50.984;7.022;2024-03-02T05:27:37;1.47;;;1.37;;
12445;SDS011;6287;50.984;7.022;2024-03-02T05:30:02;1.40;;;1.30;;
12445;SDS011;6287;50.984;7.022;2024-03-02T05:32:31;1.40;;;1.30;;
12445;SDS011;6287;50.984;7.022;2024-03-02T05:34:59;1.80;;;1.23;;
12445;SDS011;6287;50.984;7.022;2024-03-02T05:37:27;1.53;;;1.40;;
12445;SDS011;6287;50.984;7.022;2024-03-02T05:39:53;1.40;;;1.20;;
12445;SDS011;6287;50.984;7.022;2024-03-02T05:42:21;1.40;;;1.30;;
12445;SDS011;6287;50.984;7.022;2024-03-02T05:44:46;1.20;;;1.10;;
12445;SDS011;6287;50.984;7.022;2024-03-02T05:47:20;2.23;;;1.40;;
12445;SDS011;6287;50.984;7.022;2024-03-02T05:49:48;1.73;;;1.37;;
12445;SDS011;6287;50.984;7.022;2024-03-02T05:52:13;1.40;;;1.30;;
12445;SDS011;6287;50.984;7.022;2024-03-02T05:54:41;2.20;;;1.37;;
12445;SDS011;6287;50.984;7.022;2024-03-02T05:57:07;2.10;;;1.47;;
12445;SDS011;6287;50.984;7.022;2024-03-02T05:59:42;1.93;;;1.40;;
12445;SDS011;6287;50.984;7.022;2024-03-02T06:02:08;1.50;;;1.40;;
12445;SDS011;6287;50.984;7.022;2024-03-02T06:04:36;2.67;;;1.47;;
12445;SDS011;6287;50.984;7.022;2024-03-02T06:07:04;1.67;;;1.07;;
12445;SDS011;6287;50.984;7.022;2024-03-02T06:09:31;1.40;;;1.30;;
12445;SDS011;6287;50.984;7.022;2024-03-02T06:11:57;1.60;;;1.50;;
12445;SDS011;6287;50.984;7.022;2024-03-02T06:14:23;1.77;;;1.57;;
12445;SDS011;6287;50.984;7.022;2024-03-02T06:16:51;1.57;;;1.43;;
12445;SDS011;6287;50.984;7.022;2024-03-02T06:19:18;2.00;;;1.57;;
12445;SDS011;6287;50.984;7.022;2024-03-02T06:21:46;1.53;;;1.43;;
12445;SDS011;6287;50.984;7.022;2024-03-02T06:24:14;2.60;;;1.50;;
12445;SDS011;6287;50.984;7.022;2024-03-02T06:26:40;1.73;;;1.57;;
12445;SDS011;6287;50.984;7.022;2024-03-02T06:29:06;2.10;;;1.53;;
12445;SDS011;6287;50.984;7.022;2024-03-02T06:31:33;1.63;;;1.50;;
12445;SDS011;6287;50.984;7.022;2024-03-02T06:33:58;3.77;;;1.73;;
12445;SDS011;6287;50.984;7.022;2024-03-02T06:36:24;1.67;;;1.37;;
12445;SDS011;6287;50.984;7.022;2024-03-02T06:38:52;1.50;;;1.37;;
12445;SDS011;6287;50.984;7.022;2024-03-02T06:41:17;1.93;;;1.83;;
12445;SDS011;6287;50.984;7.022;2024-03-02T06:43:43;1.50;;;1.40;;
12445;SDS011;6287;50.984;7.022;2024-03-02T06:46:13;2.30;;;2.00;;
12445;SDS011;6287;50.984;7.022;2024-03-02T06:48:40;2.00;;;1.80;;
12445;SDS011;6287;50.984;7.022;2024-03-02T06:51:05;1.73;;;1.50;;
12445;SDS011;6287;50.984;7.022;2024-03-02T06:53:33;2.60;;;1.57;;
12445;SDS011;6287;50.984;7.022;2024-03-02T06:55:59;1.97;;;1.50;;
12445;SDS011;6287;50.984;7.022;2024-03-02T06:58:24;1.70;;;1.60;;
12445;SDS011;6287;50.984;7.022;2024-03-02T07:00:50;3.33;;;1.70;;
12445;SDS011;6287;50.984;7.022;2024-03-02T07:03:18;1.77;;;1.50;;
12445;SDS011;6287;50.984;7.022;2024-03-02T07:05:43;2.20;;;2.00;;
12445;SDS011;6287;50.984;7.022;2024-03-02T07:08:09;2.27;;;1.93;;
12445;SDS011;6287;50.984;7.022;2024-03-02T07:10:34;1.60;;;1.50;;
12445;SDS011;6287;50.984;7.022;2024-03-02T07:13:00;3.10;;;1.70;;
12445;SDS011;6287;50.984;7.022;2024-03-02T07:15:26;1.60;;;1.40;;
12445;SDS011;6287;50.984;7.022;2024-03-02T07:17:53;1.83;;;1.73;;
12445;SDS011;6287;50.984;7.022;2024-03-02T07:20:22;2.27;;;1.97;;
12445;SDS011;6287;50.984;7.022;2024-03-02T07:22:47;2.90;;;1.83;;
12445;SDS011;6287;50.984;7.022;2024-03-02T07:25:18;2.20;;;2.00;;
12445;SDS011;6287;50.984;7.022;2024-03-02T07:27:46;2.20;;;2.00;;
12445;SDS011;6287;50.984;7.022;2024-03-02T07:30:14;2.30;;;2.10;;
12445;SDS011;6287;50.984;7.022;2024-03-02T07:32:41;2.40;;;1.90;;
12445;SDS011;6287;50.984;7.022;2024-03-02T07:35:11;2.10;;;1.90;;
12445;SDS011;6287;50.984;7.022;2024-03-02T07:37:38;3.07;;;2.10;;
12445;SDS011;6287;50.984;7.022;2024-03-02T07:40:04;3.40;;;2.30;;
12445;SDS011;6287;50.984;7.022;2024-03-02T07:42:30;1.73;;;1.63;;
12445;SDS011;6287;50.984;7.022;2024-03-02T07:44:58;2.03;;;1.83;;
12445;SDS011;6287;50.984;7.022;2024-03-02T07:47:23;1.60;;;1.50;;
12445;SDS011;6287;50.984;7.022;2024-03-02T07:49:49;2.07;;;1.57;;
12445;SDS011;6287;50.984;7.022;2024-03-02T07:52:16;2.10;;;1.53;;
12445;SDS011;6287;50.984;7.022;2024-03-02T07:54:47;1.50;;;1.40;;
12445;SDS011;6287;50.984;7.022;2024-03-02T07:57:13;1.63;;;1.53;;
12445;SDS011;6287;50.984;7.022;2024-03-02T07:59:40;2.60;;;1.90;;
12445;SDS011;6287;50.984;7.022;2024-03-02T08:02:12;1.53;;;1.47;;
12445;SDS011;6287;50.984;7.022;2024-03-02T08:04:37;2.13;;;1.40;;
12445;SDS011;6287;50.984;7.022;2024-03-02T08:07:07;2.27;;;2.00;;
12445;SDS011;6287;50.984;7.022;2024-03-02T08:09:34;2.27;;;1.43;;
12445;SDS011;6287;50.984;7.022;2024-03-02T08:12:04;2.23;;;1.50;;
12445;SDS011;6287;50.984;7.022;2024-03-02T08:14:30;1.90;;;1.57;;
12445;SDS011;6287;50.984;7.022;2024-03-02T08:16:55;1.70;;;1.60;;
12445;SDS011;6287;50.984;7.022;2024-03-02T08:19:26;3.17;;;1.83;;
12445;SDS011;6287;50.984;7.022;2024-03-02T08:21:52;1.77;;;1.67;;
12445;SDS011;6287;50.984;7.022;2024-03-02T08:24:17;1.80;;;1.70;;
12445;SDS011;6287;50.984;7.022;2024-03-02T08:26:43;8.23;;;3.03;;
12445;SDS011;6287;50.984;7.022;2024-03-02T08:29:11;3.33;;;1.70;;
12445;SDS011;6287;50.984;7.022;2024-03-02T08:31:39;1.40;;;1.33;;
12445;SDS011;6287;50.984;7.022;2024-03-02T08:34:09;1.90;;;1.73;;
12445;SDS011;6287;50.984;7.022;2024-03-02T08:36:34;1.50;;;1.40;;
12445;SDS011;6287;50.984;7.022;2024-03-02T08:39:03;1.90;;;1.50;;
12445;SDS011;6287;50.984;7.022;2024-03-02T08:41:32;1.40;;;1.30;;
12445;SDS011;6287;50.984;7.022;2024-03-02T08:44:00;1.93;;;1.50;;
12445;SDS011;6287;50.984;7.022;2024-03-02T08:46:26;1.80;;;1.50;;
12445;SDS011;6287;50.984;7.022;2024-03-02T08:48:51;2.23;;;1.60;;
12445;SDS011;6287;50.984;7.022;2024-03-02T08:51:19;1.97;;;1.70;;
12445;SDS011;6287;50.984;7.022;2024-03-02T08:53:47;1.93;;;1.40;;
12445;SDS011;6287;50.984;7.022;2024-03-02T08:56:17;2.83;;;1.77;;
12445;SDS011;6287;50.984;7.022;2024-03-02T08:58:45;2.37;;;1.50;;
12445;SDS011;6287;50.984;7.022;2024-03-02T09:01:11;1.77;;;1.37;;
12445;SDS011;6287;50.984;7.022;2024-03-02T09:03:37;2.57;;;1.47;;
12445;SDS011;6287;50.984;7.022;2024-03-02T09:06:03;1.50;;;1.40;;
12445;SDS011;6287;50.984;7.022;2024-03-02T09:08:33;1.80;;;1.10;;
12445;SDS011;6287;50.984;7.022;2024-03-02T09:11:02;1.33;;;1.20;;
12445;SDS011;6287;50.984;7.022;2024-03-02T09:13:31;1.47;;;1.17;;
12445;SDS011;6287;50.984;7.022;2024-03-02T09:15:57;2.50;;;1.50;;
12445;SDS011;6287;50.984;7.022;2024-03-02T09:18:23;2.70;;;1.80;;
12445;SDS011;6287;50.984;7.022;2024-03-02T09:20:48;1.00;;;0.87;;
12445;SDS011;6287;50.984;7.022;2024-03-02T09:23:16;4.33;;;1.23;;
12445;SDS011;6287;50.984;7.022;2024-03-02T09:25:42;2.60;;;1.07;;
12445;SDS011;6287;50.984;7.022;2024-03-02T09:28:12;1.57;;;0.80;;
12445;SDS011;6287;50.984;7.022;2024-03-02T09:30:40;1.17;;;0.90;;
12445;SDS011;6287;50.984;7.022;2024-03-02T09:33:08;3.10;;;1.20;;
12445;SDS011;6287;50.984;7.022;2024-03-02T09:35:35;0.77;;;0.70;;
12445;SDS011;6287;50.984;7.022;2024-03-02T09:38:03;0.87;;;0.83;;
12445;SDS011;6287;50.984;7.022;2024-03-02T09:40:29;0.83;;;0.80;;
12445;SDS011;6287;50.984;7.022;2024-03-02T09:42:57;1.17;;;0.70;;
12445;SDS011;6287;50.984;7.022;2024-03-02T09:45:28;1.30;;;0.90;;
12445;SDS011;6287;50.984;7.022;2024-03-02T09:47:57;1.93;;;0.90;;
12445;SDS011;6287;50.984;7.022;2024-03-02T09:50:23;2.00;;;0.80;;
12445;SDS011;6287;50.984;7.022;2024-03-02T09:52:48;1.23;;;0.87;;
12445;SDS011;6287;50.984;7.022;2024-03-02T09:55:19;1.33;;;1.00;;
12445;SDS011;6287;50.984;7.022;2024-03-02T09:57:45;2.03;;;0.97;;
12445;SDS011;6287;50.984;7.022;2024-03-02T10:00:13;1.50;;;0.73;;
12445;SDS011;6287;50.984;7.022;2024-03-02T10:02:44;2.60;;;0.80;;
12445;SDS011;6287;50.984;7.022;2024-03-02T10:05:14;1.63;;;0.80;;
12445;SDS011;6287;50.984;7.022;2024-03-02T10:08:02;0.90;;;0.90;;
12445;SDS011;6287;50.984;7.022;2024-03-02T10:10:40;1.60;;;0.77;;
12445;SDS011;6287;50.984;7.022;2024-03-02T10:13:08;0.90;;;0.83;;
12445;SDS011;6287;50.984;7.022;2024-03-02T10:15:38;1.10;;;0.80;;
12445;SDS011;6287;50.984;7.022;2024-03-02T10:18:12;1.60;;;1.13;;
12445;SDS011;6287;50.984;7.022;2024-03-02T10:20:38;1.87;;;0.90;;
12445;SDS011;6287;50.984;7.022;2024-03-02T10:23:10;1.50;;;1.00;;
12445;SDS011;6287;50.984;7.022;2024-03-02T10:25:39;2.40;;;0.90;;
12445;SDS011;6287;50.984;7.022;2024-03-02T10:28:07;0.87;;;0.87;;
12445;SDS011;6287;50.984;7.022;2024-03-02T10:30:34;0.60;;;0.60;;
12445;SDS011;6287;50.984;7.022;2024-03-02T10:33:02;0.97;;;0.80;;
12445;SDS011;6287;50.984;7.022;2024-03-02T10:35:30;1.80;;;0.80;;
12445;SDS011;6287;50.984;7.022;2024-03-02T10:38:01;1.67;;;1.00;;
12445;SDS011;6287;50.984;7.022;2024-03-02T10:40:32;1.53;;;1.07;;
12445;SDS011;6287;50.984;7.022;2024-03-02T10:42:58;1.47;;;0.87;;
12445;SDS011;6287;50.984;7.022;2024-03-02T10:45:29;1.17;;;0.70;;
12445;SDS011;6287;50.984;7.022;2024-03-02T10:48:00;5.07;;;0.80;;
12445;SDS011;6287;50.984;7.022;2024-03-02T10:50:30;1.43;;;0.90;;
12445;SDS011;6287;50.984;7.022;2024-03-02T10:52:56;1.07;;;0.90;;
12445;SDS011;6287;50.984;7.022;2024-03-02T10:55:22;0.97;;;0.77;;
12445;SDS011;6287;50.984;7.022;2024-03-02T10:57:51;1.60;;;0.97;;
12445;SDS011;6287;50.984;7.022;2024-03-02T11:00:18;0.63;;;0.60;;
12445;SDS011;6287;50.984;7.022;2024-03-02T11:02:50;1.60;;;0.70;;
12445;SDS011;6287;50.984;7.022;2024-03-02T11:05:31;0.90;;;0.90;;
12445;SDS011;6287;50.984;7.022;2024-03-02T11:08:02;0.70;;;0.70;;
12445;SDS011;6287;50.984;7.022;2024-03-02T11:10:37;0.90;;;0.90;;
12445;SDS011;6287;50.984;7.022;2024-03-02T11:13:11;1.67;;;0.67;;
12445;SDS011;6287;50.984;7.022;2024-03-02T11:15:37;1.30;;;0.80;;
12445;SDS011;6287;50.984;7.022;2024-03-02T11:18:10;1.20;;;0.85;;
12445;SDS011;6287;50.984;7.022;2024-03-02T11:20:40;0.90;;;0.67;;
12445;SDS011;6287;50.984;7.022;2024-03-02T11:23:07;0.80;;;0.80;;
12445;SDS011;6287;50.984;7.022;2024-03-02T11:25:34;1.63;;;0.80;;
12445;SDS011;6287;50.984;7.022;2024-03-02T11:28:04;1.02;;;0.82;;
12445;SDS011;6287;50.984;7.022;2024-03-02T11:32:59;1.48;;;1.00;;
12445;SDS011;6287;50.984;7.022;2024-03-02T11:35:30;2.42;;;0.82;;
12445;SDS011;6287;50.984;7.022;2024-03-02T11:37:58;1.50;;;0.80;;
12445;SDS011;6287;50.984;7.022;2024-03-02T11:40:24;1.75;;;0.73;;
12445;SDS011;6287;50.984;7.022;2024-03-02T11:42:50;1.75;;;0.82;;
12445;SDS011;6287;50.984;7.022;2024-03-02T11:45:16;2.50;;;0.82;;
12445;SDS011;6287;50.984;7.022;2024-03-02T11:47:55;1.58;;;0.80;;
12445;SDS011;6287;50.984;7.022;2024-03-02T11:50:57;1.20;;;0.80;;
12445;SDS011;6287;50.984;7.022;2024-03-02T11:53:15;0.95;;;0.90;;
12445;SDS011;6287;50.984;7.022;2024-03-02T11:55:42;2.30;;;1.10;;
12445;SDS011;6287;50.984;7.022;2024-03-02T11:58:14;1.90;;;0.93;;
12445;SDS011;6287;50.984;7.022;2024-03-02T12:00:45;1.15;;;1.00;;
12445;SDS011;6287;50.984;7.022;2024-03-02T12:03:13;1.13;;;0.90;;
12445;SDS011;6287;50.984;7.022;2024-03-02T12:05:40;0.82;;;0.73;;
12445;SDS011;6287;50.984;7.022;2024-03-02T12:08:07;0.90;;;0.90;;
12445;SDS011;6287;50.984;7.022;2024-03-02T12:10:33;1.92;;;0.80;;
12445;SDS011;6287;50.984;7.022;2024-03-02T12:13:04;1.15;;;0.68;;
12445;SDS011;6287;50.984;7.022;2024-03-02T12:15:35;2.47;;;1.30;;
12445;SDS011;6287;50.984;7.022;2024-03-02T12:18:02;1.10;;;1.00;;
12445;SDS011;6287;50.984;7.022;2024-03-02T12:20:28;0.80;;;0.80;;
12445;SDS011;6287;50.984;7.022;2024-03-02T12:22:58;1.73;;;0.82;;
12445;SDS011;6287;50.984;7.022;2024-03-02T12:25:30;0.70;;;0.70;;
12445;SDS011;6287;50.984;7.022;2024-03-02T12:28:01;1.65;;;0.73;;
12445;SDS011;6287;50.984;7.022;2024-03-02T12:30:30;0.60;;;0.60;;
12445;SDS011;6287;50.984;7.022;2024-03-02T12:33:00;0.80;;;0.80;;
12445;SDS011;6287;50.984;7.022;2024-03-02T12:35:25;0.90;;;0.90;;
12445;SDS011;6287;50.984;7.022;2024-03-02T12:37:52;0.70;;;0.70;;
12445;SDS011;6287;50.984;7.022;2024-03-02T12:40:21;0.60;;;0.60;;
12445;SDS011;6287;50.984;7.022;2024-03-02T12:42:47;1.50;;;0.80;;
12445;SDS011;6287;50.984;7.022;2024-03-02T12:45:14;1.13;;;0.80;;
12445;SDS011;6287;50.984;7.022;2024-03-02T12:47:41;0.93;;;0.80;;
12445;SDS011;6287;50.984;7.022;2024-03-02T12:50:10;1.20;;;0.52;;
12445;SDS011;6287;50.984;7.022;2024-03-02T12:52:35;0.98;;;0.80;;
12445;SDS011;6287;50.984;7.022;2024-03-02T12:55:09;1.55;;;0.82;;
12445;SDS011;6287;50.984;7.022;2024-03-02T12:57:37;0.70;;;0.70;;
12445;SDS011;6287;50.984;7.022;2024-03-02T13:00:07;0.77;;;0.70;;
12445;SDS011;6287;50.984;7.022;2024-03-02T13:02:39;1.40;;;0.70;;
12445;SDS011;6287;50.984;7.022;2024-03-02T13:05:06;1.17;;;0.68;;
12445;SDS011;6287;50.984;7.022;2024-03-02T13:07:36;0.60;;;0.60;;
12445;SDS011;6287;50.984;7.022;2024-03-02T13:10:02;2.58;;;0.70;;
12445;SDS011;6287;50.984;7.022;2024-03-02T13:12:29;0.70;;;0.70;;
12445;SDS011;6287;50.984;7.022;2024-03-02T13:14:58;1.33;;;0.68;;
12445;SDS011;6287;50.984;7.022;2024-03-02T13:17:24;2.75;;;0.70;;
12445;SDS011;6287;50.984;7.022;2024-03-02T13:19:59;0.70;;;0.70;;
12445;SDS011;6287;50.984;7.022;2024-03-02T13:22:29;0.70;;;0.70;;
12445;SDS011;6287;50.984;7.022;2024-03-02T13:24:56;0.70;;;0.70;;
12445;SDS011;6287;50.984;7.022;2024-03-02T13:27:22;0.60;;;0.60;;
12445;SDS011;6287;50.984;7.022;2024-03-02T13:29:50;0.70;;;0.70;;
12445;SDS011;6287;50.984;7.022;2024-03-02T13:32:16;0.60;;;0.60;;
12445;SDS011;6287;50.984;7.022;2024-03-02T13:34:51;0.52;;;0.52;;
12445;SDS011;6287;50.984;7.022;2024-03-02T13:37:17;0.60;;;0.60;;
12445;SDS011;6287;50.984;7.022;2024-03-02T13:39:42;1.05;;;0.93;;
12445;SDS011;6287;50.984;7.022;2024-03-02T13:42:10;0.73;;;0.68;;
12445;SDS011;6287;50.984;7.022;2024-03-02T13:44:44;0.73;;;0.73;;
12445;SDS011;6287;50.984;7.022;2024-03-02T13:47:12;0.80;;;0.80;;
12445;SDS011;6287;50.984;7.022;2024-03-02T13:49:37;1.00;;;0.90;;
12445;SDS011;6287;50.984;7.022;2024-03-02T13:52:08;0.90;;;0.90;;
12445;SDS011;6287;50.984;7.022;2024-03-02T13:54:38;1.10;;;1.00;;
12445;SDS011;6287;50.984;7.022;2024-03-02T13:57:10;1.02;;;0.85;;
12445;SDS011;6287;50.984;7.022;2024-03-02T13:59:37;1.02;;;0.90;;
12445;SDS011;6287;50.984;7.022;2024-03-02T14:02:08;0.60;;;0.60;;
12445;SDS011;6287;50.984;7.022;2024-03-02T14:04:35;0.47;;;0.47;;
12445;SDS011;6287;50.984;7.022;2024-03-02T14:07:01;0.73;;;0.63;;
12445;SDS011;6287;50.984;7.022;2024-03-02T14:09:27;0.77;;;0.70;;
12445;SDS011;6287;50.984;7.022;2024-03-02T14:11:55;0.80;;;0.77;;
12445;SDS011;6287;50.984;7.022;2024-03-02T14:14:25;1.45;;;0.70;;
12445;SDS011;6287;50.984;7.022;2024-03-02T14:16:52;0.93;;;0.65;;
12445;SDS011;6287;50.984;7.022;2024-03-02T14:19:18;1.17;;;0.52;;
12445;SDS011;6287;50.984;7.022;2024-03-02T14:21:43;0.55;;;0.55;;
12445;SDS011;6287;50.984;7.022;2024-03-02T14:24:12;0.98;;;0.77;;
12445;SDS011;6287;50.984;7.022;2024-03-02T14:26:38;0.55;;;0.55;;
12445;SDS011;6287;50.984;7.022;2024-03-02T14:29:04;1.10;;;0.75;;
12445;SDS011;6287;50.984;7.022;2024-03-02T14:31:31;0.90;;;0.60;;
12445;SDS011;6287;50.984;7.022;2024-03-02T14:34:00;1.20;;;0.80;;
12445;SDS011;6287;50.984;7.022;2024-03-02T14:36:26;0.70;;;0.52;;
12445;SDS011;6287;50.984;7.022;2024-03-02T14:38:57;0.80;;;0.80;;
12445;SDS011;6287;50.984;7.022;2024-03-02T14:41:25;0.80;;;0.63;;
12445;SDS011;6287;50.984;7.022;2024-03-02T14:43:53;0.50;;;0.50;;
12445;SDS011;6287;50.984;7.022;2024-03-02T14:46:19;0.60;;;0.60;;
12445;SDS011;6287;50.984;7.022;2024-03-02T14:48:47;0.60;;;0.60;;
12445;SDS011;6287;50.984;7.022;2024-03-02T14:51:17;0.70;;;0.70;;
12445;SDS011;6287;50.984;7.022;2024-03-02T14:53:43;0.77;;;0.77;;
12445;SDS011;6287;50.984;7.022;2024-03-02T14:56:08;0.60;;;0.60;;
12445;SDS011;6287;50.984;7.022;2024-03-02T14:58:38;1.07;;;0.67;;
12445;SDS011;6287;50.984;7.022;2024-03-02T15:01:06;0.70;;;0.70;;
12445;SDS011;6287;50.984;7.022;2024-03-02T15:03:34;0.70;;;0.70;;
12445;SDS011;6287;50.984;7.022;2024-03-02T15:06:02;0.60;;;0.60;;